createdAt,value
2018-04-28T00:01:33.001Z,4.30
2018-04-28T00:03:59.244Z,3.90
2018-04-28T00:06:25.428Z,4.50
2018-04-28T00:08:51.612Z,4.90
2018-04-28T00:11:19.439Z,4.17
2018-04-28T00:13:45.630Z,5.00
2018-04-28T00:16:13.863Z,4.37
2018-04-28T00:18:39.991Z,4.30
2018-04-28T00:21:06.168Z,4.70
2018-04-28T00:23:32.375Z,4.97
2018-04-28T00:26:04.423Z,4.30
2018-04-28T00:28:35.251Z,4.77
2018-04-28T00:31:14.450Z,4.70
2018-04-28T00:33:47.608Z,4.30
2018-04-28T00:36:15.766Z,4.40
2018-04-28T00:38:45.734Z,4.53
2018-04-28T00:41:11.918Z,4.50
2018-04-28T00:43:38.071Z,4.53
2018-04-28T00:46:04.291Z,4.47
2018-04-28T00:48:36.744Z,4.40
2018-04-28T00:51:04.710Z,5.00
2018-04-28T00:53:30.896Z,4.30
2018-04-28T00:55:59.737Z,4.23
2018-04-28T00:58:27.975Z,5.07
2018-04-28T01:01:02.514Z,4.60
2018-04-28T01:03:30.339Z,4.47
2018-04-28T01:05:56.609Z,4.90
2018-04-28T01:08:25.554Z,5.50
2018-04-28T01:11:10.632Z,4.80
2018-04-28T01:13:39.823Z,4.70
2018-04-28T01:16:06.024Z,5.20
2018-04-28T01:18:49.181Z,5.13
2018-04-28T01:21:19.279Z,5.07
2018-04-28T01:23:47.362Z,5.10
2018-04-28T01:26:29.396Z,4.70
2018-04-28T01:29:05.714Z,5.30
2018-04-28T01:31:32.835Z,5.30
2018-04-28T01:34:04.780Z,5.47
2018-04-28T01:36:33.528Z,5.07
2018-04-28T01:39:05.733Z,5.50
2018-04-28T01:44:33.637Z,5.00
2018-04-28T01:47:00.532Z,4.93
2018-04-28T01:52:21.145Z,4.70
2018-04-28T01:54:49.192Z,4.97
2018-04-28T01:57:17.092Z,4.70
2018-04-28T01:59:49.235Z,4.37
2018-04-28T02:02:15.429Z,4.90
2018-04-28T02:04:48.647Z,5.13
2018-04-28T02:07:14.842Z,4.97
2018-04-28T02:09:43.471Z,4.90
2018-04-28T02:12:21.396Z,4.60
2018-04-28T02:14:57.825Z,4.77
2018-04-28T02:17:23.932Z,4.57
2018-04-28T02:19:55.563Z,4.37
2018-04-28T02:22:47.778Z,4.60
2018-04-28T02:25:14.971Z,4.23
2018-04-28T02:27:47.955Z,5.27
2018-04-28T02:30:14.923Z,4.70
2018-04-28T02:32:41.125Z,5.10
2018-04-28T02:35:09.913Z,4.73
2018-04-28T02:37:43.910Z,5.37
2018-04-28T02:40:16.786Z,4.97
2018-04-28T02:42:44.760Z,4.63
2018-04-28T02:45:13.819Z,5.30
2018-04-28T02:47:40.016Z,5.07
2018-04-28T02:50:10.340Z,5.17
2018-04-28T02:52:46.608Z,5.43
2018-04-28T02:55:18.494Z,5.00
2018-04-28T02:57:52.725Z,5.20
2018-04-28T03:00:18.864Z,5.23
2018-04-28T03:02:46.028Z,5.60
2018-04-28T03:08:08.364Z,5.10
2018-04-28T03:10:40.582Z,4.53
2018-04-28T03:13:23.505Z,5.23
2018-04-28T03:15:49.687Z,4.63
2018-04-28T03:18:16.849Z,4.50
2018-04-28T03:20:43.067Z,4.47
2018-04-28T03:23:09.245Z,4.93
2018-04-28T03:25:35.381Z,4.90
2018-04-28T03:28:07.431Z,4.67
2018-04-28T03:30:35.686Z,4.50
2018-04-28T03:33:14.959Z,4.80
2018-04-28T03:35:48.177Z,4.17
2018-04-28T03:38:16.955Z,3.87
2018-04-28T03:40:43.107Z,4.30
2018-04-28T03:46:05.483Z,4.10
2018-04-28T03:48:34.272Z,4.40
2018-04-28T03:51:09.367Z,4.80
2018-04-28T03:53:38.300Z,5.30
2018-04-28T03:56:06.023Z,5.47
2018-04-28T03:58:44.545Z,5.87
2018-04-28T04:01:23.102Z,5.87
2018-04-28T04:04:00.231Z,5.80
2018-04-28T04:06:32.272Z,5.93
2018-04-28T04:08:58.431Z,5.73
2018-04-28T04:11:43.770Z,5.97
2018-04-28T04:14:22.063Z,6.40
2018-04-28T04:19:56.095Z,6.10
2018-04-28T04:22:30.991Z,5.50
2018-04-28T04:25:15.235Z,5.63
2018-04-28T04:27:51.347Z,5.83
2018-04-28T04:30:27.315Z,6.00
2018-04-28T04:32:53.510Z,6.40
2018-04-28T04:35:31.715Z,6.13
2018-04-28T04:37:57.910Z,5.97
2018-04-28T04:40:34.904Z,5.40
2018-04-28T04:43:09.262Z,6.00
2018-04-28T04:45:54.740Z,5.60
2018-04-28T04:48:44.883Z,5.87
2018-04-28T04:51:23.916Z,4.90
2018-04-28T04:53:51.464Z,5.17
2018-04-28T04:56:26.859Z,5.37
2018-04-28T05:02:12.022Z,4.87
2018-04-28T05:04:44.196Z,4.70
2018-04-28T05:07:24.974Z,4.60
2018-04-28T05:10:08.810Z,4.00
2018-04-28T05:12:35.008Z,5.07
2018-04-28T05:18:19.729Z,4.73
2018-04-28T05:21:08.707Z,4.97
2018-04-28T05:23:57.642Z,4.57
2018-04-28T05:27:00.206Z,4.03
2018-04-28T05:29:36.303Z,4.50
2018-04-28T05:32:15.480Z,4.43
2018-04-28T05:34:50.742Z,4.47
2018-04-28T05:40:37.546Z,4.40
2018-04-28T05:43:42.457Z,5.27
2018-04-28T05:46:13.463Z,5.30
2018-04-28T05:48:57.626Z,5.57
2018-04-28T05:51:32.564Z,5.00
2018-04-28T05:54:11.101Z,4.80
2018-04-28T05:59:47.750Z,5.13
2018-04-28T06:02:27.044Z,5.30
2018-04-28T06:05:05.564Z,5.70
2018-04-28T06:07:36.648Z,5.60
2018-04-28T06:10:13.511Z,5.40
2018-04-28T06:12:51.844Z,6.37
2018-04-28T06:18:27.972Z,5.67
2018-04-28T06:20:54.091Z,5.60
2018-04-28T06:23:20.260Z,4.73
2018-04-28T06:25:46.431Z,4.27
2018-04-28T06:28:12.580Z,4.03
2018-04-28T06:30:38.839Z,4.80
2018-04-28T06:33:05.060Z,3.90
2018-04-28T06:35:31.314Z,4.30
2018-04-28T06:37:58.257Z,4.47
2018-04-28T06:40:24.463Z,4.33
2018-04-28T06:42:50.680Z,3.77
2018-04-28T06:45:16.885Z,3.80
2018-04-28T06:47:43.064Z,3.30
2018-04-28T06:50:09.281Z,3.63
2018-04-28T06:52:35.440Z,4.03
2018-04-28T06:55:02.388Z,3.53
2018-04-28T06:57:28.582Z,3.27
2018-04-28T06:59:54.745Z,2.50
2018-04-28T07:02:20.956Z,2.87
2018-04-28T07:04:47.845Z,2.97
2018-04-28T07:07:14.071Z,2.70
2018-04-28T07:09:40.221Z,2.63
2018-04-28T07:12:06.366Z,2.87
2018-04-28T07:14:32.626Z,2.37
2018-04-28T07:16:58.804Z,2.40
2018-04-28T07:19:24.958Z,2.60
2018-04-28T07:21:51.889Z,2.00
2018-04-28T07:24:18.063Z,2.20
2018-04-28T07:26:44.270Z,2.30
2018-04-28T07:29:11.186Z,1.90
2018-04-28T07:31:37.408Z,2.00
2018-04-28T07:34:03.734Z,1.60
2018-04-28T07:36:29.995Z,2.70
2018-04-28T07:38:56.915Z,1.87
2018-04-28T07:41:23.607Z,1.90
2018-04-28T07:43:49.894Z,2.00
2018-04-28T07:46:16.175Z,1.97
2018-04-28T07:48:42.381Z,2.37
2018-04-28T07:51:08.665Z,2.10
2018-04-28T07:53:34.875Z,1.93
2018-04-28T07:56:01.107Z,2.30
2018-04-28T07:58:27.301Z,2.63
2018-04-28T08:00:53.468Z,2.43
2018-04-28T08:03:19.719Z,2.17
2018-04-28T08:05:45.891Z,2.20
2018-04-28T08:08:12.095Z,1.90
2018-04-28T08:10:38.964Z,2.43
2018-04-28T08:13:05.163Z,1.93
2018-04-28T08:15:32.103Z,1.70
2018-04-28T08:17:59.063Z,1.37
2018-04-28T08:20:26.592Z,2.00
2018-04-28T08:22:55.544Z,1.90
2018-04-28T08:25:23.397Z,1.93
2018-04-28T08:27:52.066Z,1.50
2018-04-28T08:30:19.413Z,2.20
2018-04-28T08:32:49.140Z,1.97
2018-04-28T08:35:15.699Z,2.57
2018-04-28T08:37:42.970Z,2.60
2018-04-28T08:40:09.193Z,2.10
2018-04-28T08:42:35.415Z,1.70
2018-04-28T08:45:01.667Z,2.20
2018-04-28T08:47:27.831Z,1.83
2018-04-28T08:49:54.810Z,2.07
2018-04-28T08:52:20.982Z,1.90
2018-04-28T08:54:47.211Z,1.83
2018-04-28T08:57:14.230Z,1.93
2018-04-28T08:59:52.802Z,1.80
2018-04-28T09:02:18.974Z,1.97
2018-04-28T09:04:45.133Z,1.53
2018-04-28T09:07:25.573Z,2.07
2018-04-28T09:09:51.797Z,2.67
2018-04-28T09:12:18.029Z,1.80
2018-04-28T09:14:44.230Z,1.60
2018-04-28T09:17:10.444Z,1.90
2018-04-28T09:19:36.678Z,1.97
2018-04-28T09:22:02.863Z,1.57
2018-04-28T09:24:29.830Z,2.10
2018-04-28T09:26:55.985Z,2.63
2018-04-28T09:29:22.173Z,2.10
2018-04-28T09:31:49.141Z,2.17
2018-04-28T09:34:15.359Z,1.93
2018-04-28T09:36:42.310Z,1.73
2018-04-28T09:39:08.476Z,1.80
2018-04-28T09:41:34.734Z,2.00
2018-04-28T09:44:01.721Z,1.93
2018-04-28T09:46:27.970Z,3.43
2018-04-28T09:48:54.069Z,2.20
2018-04-28T09:51:20.307Z,1.77
2018-04-28T09:53:46.530Z,2.27
2018-04-28T09:56:12.766Z,1.90
2018-04-28T09:58:38.929Z,1.93
2018-04-28T10:01:06.109Z,1.90
2018-04-28T10:03:33.072Z,1.97
2018-04-28T10:05:59.232Z,2.23
2018-04-28T10:08:25.373Z,2.40
2018-04-28T10:10:51.584Z,2.40
2018-04-28T10:13:17.715Z,2.00
2018-04-28T10:15:43.915Z,2.17
2018-04-28T10:18:10.029Z,1.87
2018-04-28T10:20:36.231Z,1.73
2018-04-28T10:23:03.162Z,2.70
2018-04-28T10:25:29.344Z,2.07
2018-04-28T10:27:55.518Z,2.40
2018-04-28T10:30:21.678Z,2.33
2018-04-28T10:32:48.630Z,1.80
2018-04-28T10:35:14.770Z,1.87
2018-04-28T10:37:40.916Z,2.23
2018-04-28T10:40:07.108Z,2.30
2018-04-28T10:42:33.276Z,2.07
2018-04-28T10:44:59.427Z,2.10
2018-04-28T10:47:25.633Z,1.70
2018-04-28T10:49:51.849Z,2.17
2018-04-28T10:52:18.083Z,2.23
2018-04-28T10:54:44.258Z,2.13
2018-04-28T10:57:11.136Z,2.37
2018-04-28T10:59:37.323Z,2.80
2018-04-28T11:02:04.247Z,2.77
2018-04-28T11:04:30.386Z,2.70
2018-04-28T11:06:56.558Z,3.13
2018-04-28T11:09:22.733Z,2.37
2018-04-28T11:11:48.889Z,2.80
2018-04-28T11:14:15.830Z,3.07
2018-04-28T11:16:42.804Z,2.40
2018-04-28T11:19:09.004Z,2.10
2018-04-28T11:21:35.964Z,2.20
2018-04-28T11:24:02.186Z,2.00
2018-04-28T11:26:28.439Z,3.00
2018-04-28T11:28:54.668Z,2.10
2018-04-28T11:31:20.843Z,3.33
2018-04-28T11:33:47.032Z,2.60
2018-04-28T11:36:13.230Z,3.60
2018-04-28T11:38:39.412Z,2.67
2018-04-28T11:41:05.626Z,2.10
2018-04-28T11:43:31.904Z,2.20
2018-04-28T11:45:57.997Z,2.20
2018-04-28T11:48:24.214Z,2.47
2018-04-28T11:50:50.367Z,2.00
2018-04-28T11:53:16.513Z,2.47
2018-04-28T11:55:42.671Z,2.33
2018-04-28T11:58:08.866Z,2.10
2018-04-28T12:00:35.099Z,2.17
2018-04-28T12:03:01.284Z,2.60
2018-04-28T12:05:27.460Z,2.20
2018-04-28T12:07:53.607Z,2.47
2018-04-28T12:10:19.751Z,2.30
2018-04-28T12:12:45.905Z,2.60
2018-04-28T12:15:12.113Z,1.93
2018-04-28T12:17:38.262Z,2.40
2018-04-28T12:20:04.483Z,2.10
2018-04-28T12:22:30.671Z,2.10
2018-04-28T12:24:56.855Z,2.53
2018-04-28T12:27:23.800Z,2.83
2018-04-28T12:29:50.818Z,2.70
2018-04-28T12:32:16.958Z,2.37
2018-04-28T12:34:43.088Z,2.10
2018-04-28T12:37:09.271Z,2.87
2018-04-28T12:39:35.453Z,2.60
2018-04-28T12:42:02.451Z,3.40
2018-04-28T12:44:28.648Z,3.00
2018-04-28T12:46:54.817Z,3.10
2018-04-28T12:49:21.004Z,2.83
2018-04-28T12:51:47.183Z,3.33
2018-04-28T12:54:13.323Z,3.13
2018-04-28T12:56:39.536Z,3.23
2018-04-28T12:59:05.710Z,3.27
2018-04-28T13:01:31.876Z,2.47
2018-04-28T13:03:58.032Z,2.50
2018-04-28T13:06:24.197Z,2.60
2018-04-28T13:08:50.383Z,3.00
2018-04-28T13:11:16.573Z,2.73
2018-04-28T13:13:42.790Z,2.50
2018-04-28T13:16:08.942Z,3.87
2018-04-28T13:18:35.091Z,2.70
2018-04-28T13:21:01.275Z,2.50
2018-04-28T13:23:27.475Z,2.93
2018-04-28T13:25:53.734Z,3.23
2018-04-28T13:28:19.823Z,2.70
2018-04-28T13:30:46.780Z,2.23
2018-04-28T13:33:12.925Z,2.50
2018-04-28T13:35:39.032Z,2.73
2018-04-28T13:38:05.220Z,2.60
2018-04-28T13:40:31.388Z,2.40
2018-04-28T13:42:57.576Z,2.27
2018-04-28T13:45:23.746Z,2.50
2018-04-28T13:47:49.907Z,3.10
2018-04-28T13:50:16.098Z,2.43
2018-04-28T13:52:42.271Z,2.00
2018-04-28T13:55:08.484Z,2.57
2018-04-28T13:57:34.708Z,3.03
2018-04-28T14:00:00.945Z,3.30
2018-04-28T14:02:27.219Z,2.67
2018-04-28T14:04:53.347Z,2.20
2018-04-28T14:07:20.226Z,2.67
2018-04-28T14:09:46.431Z,2.47
2018-04-28T14:12:12.670Z,2.47
2018-04-28T14:14:38.885Z,2.60
2018-04-28T14:17:05.100Z,2.90
2018-04-28T14:19:32.023Z,2.10
2018-04-28T14:21:58.121Z,2.40
2018-04-28T14:24:25.055Z,2.57
2018-04-28T14:26:51.225Z,2.67
2018-04-28T14:29:17.439Z,3.00
2018-04-28T14:31:43.596Z,2.87
2018-04-28T14:34:10.547Z,2.20
2018-04-28T14:36:37.439Z,2.03
2018-04-28T14:39:03.608Z,2.90
2018-04-28T14:41:30.528Z,2.07
2018-04-28T14:43:56.680Z,2.33
2018-04-28T14:46:23.638Z,3.50
2018-04-28T14:48:49.915Z,2.37
2018-04-28T14:51:16.087Z,3.17
2018-04-28T14:53:42.997Z,2.87
2018-04-28T14:56:09.141Z,2.53
2018-04-28T14:58:35.287Z,3.07
2018-04-28T15:01:02.288Z,2.53
2018-04-28T15:03:28.427Z,2.80
2018-04-28T15:05:54.654Z,2.50
2018-04-28T15:08:20.794Z,2.40
2018-04-28T15:10:46.990Z,2.53
2018-04-28T15:13:13.902Z,2.60
2018-04-28T15:15:40.022Z,2.07
2018-04-28T15:18:06.172Z,2.80
2018-04-28T15:20:32.325Z,2.37
2018-04-28T15:22:58.529Z,2.43
2018-04-28T15:25:24.695Z,2.70
2018-04-28T15:27:50.922Z,3.30
2018-04-28T15:30:17.092Z,2.87
2018-04-28T15:32:43.315Z,2.47
2018-04-28T15:35:09.729Z,2.17
2018-04-28T15:37:36.712Z,2.47
2018-04-28T15:40:02.981Z,2.83
2018-04-28T15:42:29.144Z,2.90
2018-04-28T15:44:56.008Z,2.53
2018-04-28T15:47:22.188Z,3.03
2018-04-28T15:49:49.135Z,2.23
2018-04-28T15:52:15.311Z,2.40
2018-04-28T15:54:41.500Z,2.73
2018-04-28T15:57:08.446Z,3.00
2018-04-28T15:59:35.328Z,2.60
2018-04-28T16:02:01.523Z,2.57
2018-04-28T16:04:28.363Z,2.37
2018-04-28T16:06:55.243Z,2.80
2018-04-28T16:09:21.487Z,2.77
2018-04-28T16:11:47.600Z,5.83
2018-04-28T16:14:13.723Z,3.37
2018-04-28T16:16:39.853Z,2.50
2018-04-28T16:19:06.071Z,2.70
2018-04-28T16:21:32.275Z,2.40
2018-04-28T16:23:59.137Z,2.80
2018-04-28T16:26:25.341Z,2.20
2018-04-28T16:28:51.567Z,2.47
2018-04-28T16:31:18.443Z,2.57
2018-04-28T16:33:44.599Z,1.87
2018-04-28T16:36:10.780Z,3.37
2018-04-28T16:38:36.924Z,2.90
2018-04-28T16:41:03.083Z,3.67
2018-04-28T16:43:29.228Z,6.87
2018-04-28T16:45:55.387Z,5.93
2018-04-28T16:48:21.610Z,3.90
2018-04-28T16:50:47.815Z,4.10
2018-04-28T16:53:14.699Z,2.20
2018-04-28T16:55:40.847Z,6.53
2018-04-28T16:58:07.019Z,5.40
2018-04-28T17:00:33.952Z,3.27
2018-04-28T17:03:00.122Z,2.87
2018-04-28T17:05:26.286Z,3.70
2018-04-28T17:07:52.467Z,4.50
2018-04-28T17:10:18.674Z,5.97
2018-04-28T17:12:45.719Z,6.47
2018-04-28T17:15:12.020Z,4.20
2018-04-28T17:17:50.550Z,3.47
2018-04-28T17:20:16.978Z,6.00
2018-04-28T17:22:43.154Z,5.40
2018-04-28T17:25:09.436Z,4.50
2018-04-28T17:27:35.556Z,4.20
2018-04-28T17:30:01.745Z,3.90
2018-04-28T17:32:27.974Z,2.67
2018-04-28T17:34:54.459Z,3.00
2018-04-28T17:37:21.339Z,2.77
2018-04-28T17:39:47.610Z,2.60
2018-04-28T17:42:13.764Z,2.80
2018-04-28T17:44:40.123Z,2.80
2018-04-28T17:47:06.360Z,2.50
2018-04-28T17:49:32.630Z,3.90
2018-04-28T17:51:59.166Z,3.73
2018-04-28T17:54:25.344Z,2.87
2018-04-28T17:56:52.255Z,3.50
2018-04-28T17:59:18.430Z,2.77
2018-04-28T18:01:44.641Z,2.90
2018-04-28T18:04:10.819Z,2.97
2018-04-28T18:06:36.965Z,3.43
2018-04-28T18:09:03.201Z,3.23
2018-04-28T18:11:30.070Z,3.87
2018-04-28T18:13:56.213Z,4.50
2018-04-28T18:16:22.344Z,3.40
2018-04-28T18:18:48.507Z,3.10
2018-04-28T18:21:15.011Z,3.70
2018-04-28T18:23:41.319Z,3.20
2018-04-28T18:26:07.537Z,3.33
2018-04-28T18:28:33.680Z,3.07
2018-04-28T18:30:59.858Z,3.10
2018-04-28T18:33:26.039Z,3.20
2018-04-28T18:35:52.263Z,3.70
2018-04-28T18:38:18.392Z,4.37
2018-04-28T18:40:44.542Z,3.97
2018-04-28T18:43:10.717Z,3.03
2018-04-28T18:45:37.565Z,3.13
2018-04-28T18:48:04.523Z,3.27
2018-04-28T18:50:30.702Z,3.53
2018-04-28T18:52:56.917Z,2.90
2018-04-28T18:55:23.053Z,3.17
2018-04-28T18:57:49.264Z,4.30
2018-04-28T19:00:15.457Z,4.40
2018-04-28T19:02:41.644Z,4.33
2018-04-28T19:05:07.848Z,3.17
2018-04-28T19:07:34.045Z,3.67
2018-04-28T19:10:00.153Z,24.67
2018-04-28T19:12:27.074Z,67.30
2018-04-28T19:14:53.294Z,25.87
2018-04-28T19:17:19.481Z,8.07
2018-04-28T19:19:45.675Z,5.00
2018-04-28T19:22:12.654Z,4.00
2018-04-28T19:24:39.593Z,3.87
2018-04-28T19:27:05.836Z,5.30
2018-04-28T19:29:32.062Z,5.77
2018-04-28T19:31:58.246Z,4.20
2018-04-28T19:34:25.187Z,4.23
2018-04-28T19:36:51.329Z,3.43
2018-04-28T19:39:18.281Z,3.73
2018-04-28T19:41:44.418Z,3.67
2018-04-28T19:44:10.612Z,5.83
2018-04-28T19:46:36.826Z,6.17
2018-04-28T19:49:03.015Z,5.80
2018-04-28T19:51:29.250Z,8.40
2018-04-28T19:53:55.383Z,6.37
2018-04-28T19:56:21.555Z,4.70
2018-04-28T19:58:48.491Z,7.33
2018-04-28T20:01:15.447Z,8.17
2018-04-28T20:03:42.378Z,9.00
2018-04-28T20:06:09.280Z,8.10
2018-04-28T20:08:35.500Z,8.00
2018-04-28T20:11:01.671Z,6.40
2018-04-28T20:13:27.878Z,10.03
2018-04-28T20:15:54.060Z,10.30
2018-04-28T20:18:20.271Z,7.60
2018-04-28T20:20:47.167Z,6.03
2018-04-28T20:23:25.674Z,4.50
2018-04-28T20:25:52.053Z,5.27
2018-04-28T20:28:18.229Z,4.80
2018-04-28T20:30:51.502Z,3.37
2018-04-28T20:33:17.720Z,15.57
2018-04-28T20:35:44.649Z,16.87
2018-04-28T20:38:10.790Z,9.20
2018-04-28T20:40:37.732Z,5.70
2018-04-28T20:43:04.614Z,4.73
2018-04-28T20:45:30.796Z,5.70
2018-04-28T20:47:57.747Z,5.03
2018-04-28T20:50:24.830Z,5.70
2018-04-28T20:52:51.017Z,5.50
2018-04-28T20:55:18.056Z,5.50
2018-04-28T20:57:44.962Z,5.60
2018-04-28T21:00:11.089Z,5.03
2018-04-28T21:02:37.293Z,5.63
2018-04-28T21:05:03.471Z,5.13
2018-04-28T21:07:29.614Z,5.10
2018-04-28T21:09:55.791Z,5.37
2018-04-28T21:12:21.940Z,5.77
2018-04-28T21:14:48.106Z,7.23
2018-04-28T21:17:15.011Z,5.37
2018-04-28T21:19:41.119Z,5.87
2018-04-28T21:22:07.281Z,7.50
2018-04-28T21:24:33.425Z,6.23
2018-04-28T21:27:00.347Z,7.10
2018-04-28T21:29:26.484Z,7.33
2018-04-28T21:31:52.688Z,6.63
2018-04-28T21:34:18.859Z,7.20
2018-04-28T21:36:45.020Z,6.40
2018-04-28T21:39:11.213Z,6.93
2018-04-28T21:41:37.362Z,6.43
2018-04-28T21:44:03.556Z,8.70
2018-04-28T21:46:30.482Z,17.20
2018-04-28T21:48:56.627Z,14.43
2018-04-28T21:51:23.524Z,11.67
2018-04-28T21:53:49.668Z,10.30
2018-04-28T21:56:15.885Z,8.90
2018-04-28T21:58:42.084Z,8.50
2018-04-28T22:01:08.270Z,8.67
2018-04-28T22:03:35.191Z,7.57
2018-04-28T22:06:01.362Z,7.80
2018-04-28T22:08:28.252Z,7.07
2018-04-28T22:10:54.411Z,7.43
2018-04-28T22:13:21.346Z,7.80
2018-04-28T22:15:47.529Z,8.07
2018-04-28T22:18:13.668Z,6.50
2018-04-28T22:20:39.875Z,5.43
2018-04-28T22:23:06.003Z,6.23
2018-04-28T22:25:32.155Z,6.33
2018-04-28T22:27:58.343Z,6.50
2018-04-28T22:30:24.485Z,6.03
2018-04-28T22:32:50.603Z,5.63
2018-04-28T22:35:16.811Z,5.80
2018-04-28T22:37:43.743Z,6.13
2018-04-28T22:40:09.889Z,4.97
2018-04-28T22:42:36.773Z,5.17
2018-04-28T22:45:02.944Z,4.77
2018-04-28T22:47:29.077Z,5.33
2018-04-28T22:49:55.988Z,4.93
2018-04-28T22:52:22.227Z,5.43
2018-04-28T22:54:48.352Z,5.93
2018-04-28T22:57:14.546Z,5.80
2018-04-28T22:59:40.762Z,4.90
2018-04-28T23:02:07.615Z,7.60
2018-04-28T23:04:33.784Z,5.40
2018-04-28T23:07:00.006Z,4.30
2018-04-28T23:09:26.153Z,5.10
2018-04-28T23:11:53.239Z,4.73
2018-04-28T23:14:19.371Z,4.80
2018-04-28T23:16:45.558Z,5.10
2018-04-28T23:19:12.463Z,4.40
2018-04-28T23:21:38.590Z,4.47
2018-04-28T23:24:04.717Z,4.30
2018-04-28T23:26:30.867Z,4.73
2018-04-28T23:28:57.066Z,4.00
2018-04-28T23:31:23.223Z,6.60
2018-04-28T23:33:49.442Z,5.13
2018-04-28T23:36:15.647Z,5.67
2018-04-28T23:38:41.844Z,4.57
2018-04-28T23:41:16.210Z,6.50
2018-04-28T23:43:43.103Z,5.60
2018-04-28T23:46:09.275Z,5.47
2018-04-28T23:48:36.199Z,5.63
2018-04-28T23:51:02.392Z,5.30
2018-04-28T23:53:28.601Z,5.97
2018-04-28T23:55:54.791Z,6.00
2018-04-28T23:58:21.707Z,5.50
